sensor_id;sensor_type;location;lat;lon;timestamp;P1;durP1;ratioP1;P2;durP2;ratioP2
28682;SDS011;15862;43.062;25.626;2022-12-07T00:00:42;38.88;;;15.77;;
28682;SDS011;15862;43.062;25.626;2022-12-07T00:03:07;41.25;;;18.25;;
28682;SDS011;15862;43.062;25.626;2022-12-07T00:05:33;40.28;;;16.67;;
28682;SDS011;15862;43.062;25.626;2022-12-07T00:07:58;44.00;;;17.73;;
28682;SDS011;15862;43.062;25.626;2022-12-07T00:10:23;39.95;;;16.67;;
28682;SDS011;15862;43.062;25.626;2022-12-07T00:12:49;35.83;;;16.42;;
28682;SDS011;15862;43.062;25.626;2022-12-07T00:15:15;41.50;;;18.95;;
28682;SDS011;15862;43.062;25.626;2022-12-07T00:17:40;33.17;;;16.02;;
28682;SDS011;15862;43.062;25.626;2022-12-07T00:20:06;37.15;;;16.25;;
28682;SDS011;15862;43.062;25.626;2022-12-07T00:22:32;38.67;;;18.08;;
28682;SDS011;15862;43.062;25.626;2022-12-07T00:24:57;39.72;;;18.92;;
28682;SDS011;15862;43.062;25.626;2022-12-07T00:27:22;43.35;;;18.45;;
28682;SDS011;15862;43.062;25.626;2022-12-07T00:29:48;46.08;;;18.85;;
28682;SDS011;15862;43.062;25.626;2022-12-07T00:32:13;41.33;;;19.48;;
28682;SDS011;15862;43.062;25.626;2022-12-07T00:34:39;41.50;;;18.67;;
28682;SDS011;15862;43.062;25.626;2022-12-07T00:37:04;44.08;;;18.30;;
28682;SDS011;15862;43.062;25.626;2022-12-07T00:39:29;38.78;;;18.10;;
28682;SDS011;15862;43.062;25.626;2022-12-07T00:41:55;41.72;;;19.80;;
28682;SDS011;15862;43.062;25.626;2022-12-07T00:44:20;46.67;;;20.42;;
28682;SDS011;15862;43.062;25.626;2022-12-07T00:46:46;48.83;;;20.58;;
28682;SDS011;15862;43.062;25.626;2022-12-07T00:49:11;43.95;;;20.70;;
28682;SDS011;15862;43.062;25.626;2022-12-07T00:51:37;46.13;;;22.45;;
28682;SDS011;15862;43.062;25.626;2022-12-07T00:54:02;43.08;;;20.20;;
28682;SDS011;15862;43.062;25.626;2022-12-07T00:56:28;44.20;;;20.35;;
28682;SDS011;15862;43.062;25.626;2022-12-07T00:58:55;40.55;;;18.17;;
28682;SDS011;15862;43.062;25.626;2022-12-07T01:01:23;42.53;;;19.73;;
28682;SDS011;15862;43.062;25.626;2022-12-07T01:03:49;41.80;;;18.08;;
28682;SDS011;15862;43.062;25.626;2022-12-07T01:06:16;47.45;;;20.17;;
28682;SDS011;15862;43.062;25.626;2022-12-07T01:08:43;38.92;;;18.25;;
28682;SDS011;15862;43.062;25.626;2022-12-07T01:11:09;35.13;;;17.92;;
28682;SDS011;15862;43.062;25.626;2022-12-07T01:13:38;48.92;;;19.63;;
28682;SDS011;15862;43.062;25.626;2022-12-07T01:16:04;40.45;;;18.27;;
28682;SDS011;15862;43.062;25.626;2022-12-07T01:18:32;38.90;;;18.60;;
28682;SDS011;15862;43.062;25.626;2022-12-07T01:23:24;41.45;;;19.00;;
28682;SDS011;15862;43.062;25.626;2022-12-07T01:25:59;36.85;;;17.88;;
28682;SDS011;15862;43.062;25.626;2022-12-07T01:28:29;36.83;;;17.55;;
28682;SDS011;15862;43.062;25.626;2022-12-07T01:30:59;41.20;;;18.15;;
28682;SDS011;15862;43.062;25.626;2022-12-07T01:33:27;35.15;;;18.85;;
28682;SDS011;15862;43.062;25.626;2022-12-07T01:35:54;34.95;;;16.95;;
28682;SDS011;15862;43.062;25.626;2022-12-07T01:38:25;37.03;;;17.90;;
28682;SDS011;15862;43.062;25.626;2022-12-07T01:40:54;36.20;;;17.95;;
28682;SDS011;15862;43.062;25.626;2022-12-07T01:43:21;33.28;;;15.30;;
28682;SDS011;15862;43.062;25.626;2022-12-07T01:45:48;33.78;;;16.23;;
28682;SDS011;15862;43.062;25.626;2022-12-07T01:48:15;36.45;;;16.13;;
28682;SDS011;15862;43.062;25.626;2022-12-07T01:50:43;27.77;;;15.25;;
28682;SDS011;15862;43.062;25.626;2022-12-07T01:53:11;24.88;;;13.82;;
28682;SDS011;15862;43.062;25.626;2022-12-07T01:55:39;28.75;;;14.00;;
28682;SDS011;15862;43.062;25.626;2022-12-07T01:58:09;28.55;;;15.05;;
28682;SDS011;15862;43.062;25.626;2022-12-07T02:00:36;25.75;;;13.35;;
28682;SDS011;15862;43.062;25.626;2022-12-07T02:03:13;37.08;;;15.15;;
28682;SDS011;15862;43.062;25.626;2022-12-07T02:05:43;32.38;;;14.27;;
28682;SDS011;15862;43.062;25.626;2022-12-07T02:08:11;28.08;;;13.65;;
28682;SDS011;15862;43.062;25.626;2022-12-07T02:10:38;28.92;;;15.02;;
28682;SDS011;15862;43.062;25.626;2022-12-07T02:13:11;28.40;;;15.00;;
28682;SDS011;15862;43.062;25.626;2022-12-07T02:15:51;30.90;;;15.70;;
28682;SDS011;15862;43.062;25.626;2022-12-07T02:29:33;29.92;;;14.48;;
28682;SDS011;15862;43.062;25.626;2022-12-07T02:37:21;37.72;;;14.38;;
28682;SDS011;15862;43.062;25.626;2022-12-07T02:39:56;28.20;;;15.20;;
28682;SDS011;15862;43.062;25.626;2022-12-07T02:42:31;39.13;;;15.98;;
28682;SDS011;15862;43.062;25.626;2022-12-07T02:45:01;38.92;;;16.40;;
28682;SDS011;15862;43.062;25.626;2022-12-07T02:47:28;40.97;;;18.40;;
28682;SDS011;15862;43.062;25.626;2022-12-07T02:49:56;41.13;;;16.90;;
28682;SDS011;15862;43.062;25.626;2022-12-07T02:52:22;39.15;;;16.80;;
28682;SDS011;15862;43.062;25.626;2022-12-07T02:54:47;34.22;;;16.08;;
28682;SDS011;15862;43.062;25.626;2022-12-07T02:57:39;38.13;;;16.10;;
28682;SDS011;15862;43.062;25.626;2022-12-07T03:02:46;32.55;;;14.45;;
28682;SDS011;15862;43.062;25.626;2022-12-07T03:13:29;38.75;;;15.95;;
28682;SDS011;15862;43.062;25.626;2022-12-07T03:19:10;41.70;;;16.13;;
28682;SDS011;15862;43.062;25.626;2022-12-07T03:21:44;41.08;;;15.25;;
28682;SDS011;15862;43.062;25.626;2022-12-07T03:24:15;47.70;;;16.33;;
28682;SDS011;15862;43.062;25.626;2022-12-07T03:26:46;42.60;;;15.52;;
28682;SDS011;15862;43.062;25.626;2022-12-07T03:29:17;42.65;;;17.15;;
28682;SDS011;15862;43.062;25.626;2022-12-07T03:31:51;40.60;;;15.73;;
28682;SDS011;15862;43.062;25.626;2022-12-07T03:34:26;46.00;;;17.27;;
28682;SDS011;15862;43.062;25.626;2022-12-07T03:37:03;49.40;;;16.67;;
28682;SDS011;15862;43.062;25.626;2022-12-07T03:42:22;47.55;;;16.88;;
28682;SDS011;15862;43.062;25.626;2022-12-07T03:44:48;52.38;;;17.83;;
28682;SDS011;15862;43.062;25.626;2022-12-07T03:47:23;58.17;;;18.38;;
28682;SDS011;15862;43.062;25.626;2022-12-07T03:49:58;48.58;;;19.58;;
28682;SDS011;15862;43.062;25.626;2022-12-07T03:52:32;53.47;;;19.80;;
28682;SDS011;15862;43.062;25.626;2022-12-07T03:57:43;50.00;;;17.77;;
28682;SDS011;15862;43.062;25.626;2022-12-07T04:00:12;47.75;;;17.88;;
28682;SDS011;15862;43.062;25.626;2022-12-07T04:02:38;45.50;;;16.35;;
28682;SDS011;15862;43.062;25.626;2022-12-07T04:05:05;50.25;;;18.73;;
28682;SDS011;15862;43.062;25.626;2022-12-07T04:07:31;46.88;;;17.23;;
28682;SDS011;15862;43.062;25.626;2022-12-07T04:09:56;59.80;;;19.30;;
28682;SDS011;15862;43.062;25.626;2022-12-07T04:12:22;51.63;;;17.27;;
28682;SDS011;15862;43.062;25.626;2022-12-07T04:14:48;46.15;;;18.08;;
28682;SDS011;15862;43.062;25.626;2022-12-07T04:17:14;51.33;;;16.92;;
28682;SDS011;15862;43.062;25.626;2022-12-07T04:19:40;48.97;;;17.17;;
28682;SDS011;15862;43.062;25.626;2022-12-07T04:22:05;47.35;;;19.00;;
28682;SDS011;15862;43.062;25.626;2022-12-07T04:24:31;46.88;;;17.80;;
28682;SDS011;15862;43.062;25.626;2022-12-07T04:26:57;44.90;;;16.77;;
28682;SDS011;15862;43.062;25.626;2022-12-07T04:29:23;49.95;;;18.25;;
28682;SDS011;15862;43.062;25.626;2022-12-07T04:31:48;44.30;;;17.92;;
28682;SDS011;15862;43.062;25.626;2022-12-07T04:34:15;45.35;;;17.10;;
28682;SDS011;15862;43.062;25.626;2022-12-07T04:36:41;41.50;;;16.40;;
28682;SDS011;15862;43.062;25.626;2022-12-07T04:39:07;43.90;;;16.45;;
28682;SDS011;15862;43.062;25.626;2022-12-07T04:41:38;38.30;;;16.30;;
28682;SDS011;15862;43.062;25.626;2022-12-07T04:44:04;40.70;;;16.48;;
28682;SDS011;15862;43.062;25.626;2022-12-07T04:46:32;35.15;;;15.93;;
28682;SDS011;15862;43.062;25.626;2022-12-07T04:48:58;41.72;;;16.60;;
28682;SDS011;15862;43.062;25.626;2022-12-07T04:51:26;44.85;;;18.42;;
28682;SDS011;15862;43.062;25.626;2022-12-07T04:53:53;40.60;;;15.75;;
28682;SDS011;15862;43.062;25.626;2022-12-07T04:56:19;46.50;;;17.52;;
28682;SDS011;15862;43.062;25.626;2022-12-07T04:58:46;41.53;;;16.38;;
28682;SDS011;15862;43.062;25.626;2022-12-07T05:01:12;40.40;;;16.50;;
28682;SDS011;15862;43.062;25.626;2022-12-07T05:03:39;37.33;;;16.38;;
28682;SDS011;15862;43.062;25.626;2022-12-07T05:06:05;41.00;;;16.45;;
28682;SDS011;15862;43.062;25.626;2022-12-07T05:08:31;30.73;;;15.10;;
28682;SDS011;15862;43.062;25.626;2022-12-07T05:10:58;35.03;;;16.70;;
28682;SDS011;15862;43.062;25.626;2022-12-07T05:13:23;34.30;;;14.80;;
28682;SDS011;15862;43.062;25.626;2022-12-07T05:15:49;37.28;;;15.13;;
28682;SDS011;15862;43.062;25.626;2022-12-07T05:18:14;32.78;;;14.93;;
28682;SDS011;15862;43.062;25.626;2022-12-07T05:20:41;35.95;;;16.05;;
28682;SDS011;15862;43.062;25.626;2022-12-07T05:23:07;33.80;;;15.88;;
28682;SDS011;15862;43.062;25.626;2022-12-07T05:25:33;34.05;;;16.15;;
28682;SDS011;15862;43.062;25.626;2022-12-07T05:27:58;50.90;;;17.10;;
28682;SDS011;15862;43.062;25.626;2022-12-07T05:30:24;36.65;;;16.58;;
28682;SDS011;15862;43.062;25.626;2022-12-07T05:32:50;33.15;;;16.30;;
28682;SDS011;15862;43.062;25.626;2022-12-07T05:35:17;35.13;;;14.85;;
28682;SDS011;15862;43.062;25.626;2022-12-07T05:37:43;64.82;;;15.63;;
28682;SDS011;15862;43.062;25.626;2022-12-07T05:40:09;38.50;;;16.25;;
28682;SDS011;15862;43.062;25.626;2022-12-07T05:42:35;34.85;;;14.65;;
28682;SDS011;15862;43.062;25.626;2022-12-07T05:45:00;32.22;;;14.85;;
28682;SDS011;15862;43.062;25.626;2022-12-07T05:47:26;33.28;;;15.13;;
28682;SDS011;15862;43.062;25.626;2022-12-07T05:49:51;31.77;;;13.60;;
28682;SDS011;15862;43.062;25.626;2022-12-07T05:52:17;37.78;;;15.52;;
28682;SDS011;15862;43.062;25.626;2022-12-07T05:54:42;41.05;;;15.10;;
28682;SDS011;15862;43.062;25.626;2022-12-07T05:57:08;37.92;;;15.27;;
28682;SDS011;15862;43.062;25.626;2022-12-07T05:59:33;38.60;;;15.15;;
28682;SDS011;15862;43.062;25.626;2022-12-07T06:02:00;49.25;;;16.17;;
28682;SDS011;15862;43.062;25.626;2022-12-07T06:04:30;34.58;;;15.02;;
28682;SDS011;15862;43.062;25.626;2022-12-07T06:06:57;37.90;;;14.35;;
28682;SDS011;15862;43.062;25.626;2022-12-07T06:09:24;37.03;;;14.73;;
28682;SDS011;15862;43.062;25.626;2022-12-07T06:11:50;37.78;;;14.25;;
28682;SDS011;15862;43.062;25.626;2022-12-07T06:14:35;48.03;;;15.50;;
28682;SDS011;15862;43.062;25.626;2022-12-07T06:17:01;66.75;;;20.58;;
28682;SDS011;15862;43.062;25.626;2022-12-07T06:19:26;48.42;;;15.02;;
28682;SDS011;15862;43.062;25.626;2022-12-07T06:21:52;47.58;;;15.32;;
28682;SDS011;15862;43.062;25.626;2022-12-07T06:24:17;34.42;;;15.38;;
28682;SDS011;15862;43.062;25.626;2022-12-07T06:26:43;36.70;;;15.10;;
28682;SDS011;15862;43.062;25.626;2022-12-07T06:29:09;34.83;;;14.98;;
28682;SDS011;15862;43.062;25.626;2022-12-07T06:31:35;32.75;;;16.45;;
28682;SDS011;15862;43.062;25.626;2022-12-07T06:34:02;35.70;;;15.45;;
28682;SDS011;15862;43.062;25.626;2022-12-07T06:36:30;38.95;;;18.67;;
28682;SDS011;15862;43.062;25.626;2022-12-07T06:38:55;45.55;;;26.90;;
28682;SDS011;15862;43.062;25.626;2022-12-07T06:41:21;64.03;;;21.75;;
28682;SDS011;15862;43.062;25.626;2022-12-07T06:43:47;38.38;;;15.40;;
28682;SDS011;15862;43.062;25.626;2022-12-07T06:46:13;33.67;;;16.48;;
28682;SDS011;15862;43.062;25.626;2022-12-07T06:48:39;52.45;;;20.55;;
28682;SDS011;15862;43.062;25.626;2022-12-07T06:51:05;47.42;;;18.35;;
28682;SDS011;15862;43.062;25.626;2022-12-07T06:53:31;39.05;;;20.55;;
28682;SDS011;15862;43.062;25.626;2022-12-07T06:55:56;37.83;;;21.55;;
28682;SDS011;15862;43.062;25.626;2022-12-07T06:58:22;40.00;;;21.88;;
28682;SDS011;15862;43.062;25.626;2022-12-07T07:00:48;42.65;;;21.02;;
28682;SDS011;15862;43.062;25.626;2022-12-07T07:03:14;35.65;;;19.33;;
28682;SDS011;15862;43.062;25.626;2022-12-07T07:05:41;31.80;;;19.77;;
28682;SDS011;15862;43.062;25.626;2022-12-07T07:08:07;32.92;;;17.90;;
28682;SDS011;15862;43.062;25.626;2022-12-07T07:10:32;34.50;;;18.02;;
28682;SDS011;15862;43.062;25.626;2022-12-07T07:12:58;32.03;;;17.63;;
28682;SDS011;15862;43.062;25.626;2022-12-07T07:15:24;35.13;;;17.95;;
28682;SDS011;15862;43.062;25.626;2022-12-07T07:17:49;40.25;;;18.75;;
28682;SDS011;15862;43.062;25.626;2022-12-07T07:20:15;33.10;;;16.35;;
28682;SDS011;15862;43.062;25.626;2022-12-07T07:22:40;52.38;;;17.00;;
28682;SDS011;15862;43.062;25.626;2022-12-07T07:25:06;26.58;;;14.13;;
28682;SDS011;15862;43.062;25.626;2022-12-07T07:27:31;31.15;;;15.80;;
28682;SDS011;15862;43.062;25.626;2022-12-07T07:29:57;106.90;;;19.90;;
28682;SDS011;15862;43.062;25.626;2022-12-07T07:32:22;37.55;;;15.77;;
28682;SDS011;15862;43.062;25.626;2022-12-07T07:34:48;24.45;;;13.35;;
28682;SDS011;15862;43.062;25.626;2022-12-07T07:37:13;24.42;;;12.35;;
28682;SDS011;15862;43.062;25.626;2022-12-07T07:39:39;29.10;;;13.98;;
28682;SDS011;15862;43.062;25.626;2022-12-07T07:42:05;28.27;;;14.15;;
28682;SDS011;15862;43.062;25.626;2022-12-07T07:44:32;26.38;;;14.50;;
28682;SDS011;15862;43.062;25.626;2022-12-07T07:46:58;25.20;;;15.60;;
28682;SDS011;15862;43.062;25.626;2022-12-07T07:49:24;28.05;;;13.98;;
28682;SDS011;15862;43.062;25.626;2022-12-07T07:51:49;23.65;;;15.20;;
28682;SDS011;15862;43.062;25.626;2022-12-07T07:54:14;22.33;;;14.27;;
28682;SDS011;15862;43.062;25.626;2022-12-07T07:56:40;24.30;;;13.93;;
28682;SDS011;15862;43.062;25.626;2022-12-07T07:59:05;23.17;;;13.82;;
28682;SDS011;15862;43.062;25.626;2022-12-07T08:01:31;28.13;;;13.88;;
28682;SDS011;15862;43.062;25.626;2022-12-07T08:03:56;18.42;;;12.55;;
28682;SDS011;15862;43.062;25.626;2022-12-07T08:06:22;23.48;;;12.90;;
28682;SDS011;15862;43.062;25.626;2022-12-07T08:08:47;21.05;;;11.70;;
28682;SDS011;15862;43.062;25.626;2022-12-07T08:11:12;36.38;;;13.57;;
28682;SDS011;15862;43.062;25.626;2022-12-07T08:13:38;32.75;;;12.25;;
28682;SDS011;15862;43.062;25.626;2022-12-07T08:16:04;20.50;;;11.27;;
28682;SDS011;15862;43.062;25.626;2022-12-07T08:18:36;21.15;;;12.40;;
28682;SDS011;15862;43.062;25.626;2022-12-07T08:21:04;22.08;;;13.20;;
28682;SDS011;15862;43.062;25.626;2022-12-07T08:23:31;24.65;;;13.85;;
28682;SDS011;15862;43.062;25.626;2022-12-07T08:26:01;25.50;;;13.35;;
28682;SDS011;15862;43.062;25.626;2022-12-07T08:28:28;23.00;;;12.85;;
28682;SDS011;15862;43.062;25.626;2022-12-07T08:31:01;19.80;;;11.95;;
28682;SDS011;15862;43.062;25.626;2022-12-07T08:33:28;21.42;;;11.55;;
28682;SDS011;15862;43.062;25.626;2022-12-07T08:35:54;23.55;;;11.48;;
28682;SDS011;15862;43.062;25.626;2022-12-07T08:38:19;19.88;;;11.35;;
28682;SDS011;15862;43.062;25.626;2022-12-07T08:40:45;18.42;;;11.55;;
28682;SDS011;15862;43.062;25.626;2022-12-07T08:43:18;20.38;;;11.15;;
28682;SDS011;15862;43.062;25.626;2022-12-07T08:45:43;124.85;;;20.70;;
28682;SDS011;15862;43.062;25.626;2022-12-07T08:48:09;28.77;;;12.07;;
28682;SDS011;15862;43.062;25.626;2022-12-07T08:50:39;34.45;;;11.45;;
28682;SDS011;15862;43.062;25.626;2022-12-07T08:53:04;17.08;;;9.93;;
28682;SDS011;15862;43.062;25.626;2022-12-07T08:55:31;18.85;;;10.73;;
28682;SDS011;15862;43.062;25.626;2022-12-07T08:57:59;13.43;;;9.93;;
28682;SDS011;15862;43.062;25.626;2022-12-07T09:00:25;15.30;;;9.18;;
28682;SDS011;15862;43.062;25.626;2022-12-07T09:02:51;12.80;;;8.32;;
28682;SDS011;15862;43.062;25.626;2022-12-07T09:05:18;11.15;;;8.68;;
28682;SDS011;15862;43.062;25.626;2022-12-07T09:07:44;18.02;;;11.18;;
28682;SDS011;15862;43.062;25.626;2022-12-07T09:10:14;14.48;;;9.95;;
28682;SDS011;15862;43.062;25.626;2022-12-07T09:12:39;16.48;;;10.07;;
28682;SDS011;15862;43.062;25.626;2022-12-07T09:15:05;17.55;;;9.18;;
28682;SDS011;15862;43.062;25.626;2022-12-07T09:17:33;17.60;;;11.50;;
28682;SDS011;15862;43.062;25.626;2022-12-07T09:20:00;15.75;;;11.00;;
28682;SDS011;15862;43.062;25.626;2022-12-07T09:22:30;15.98;;;10.85;;
28682;SDS011;15862;43.062;25.626;2022-12-07T09:24:58;17.00;;;10.50;;
28682;SDS011;15862;43.062;25.626;2022-12-07T09:27:24;15.90;;;10.43;;
28682;SDS011;15862;43.062;25.626;2022-12-07T09:29:50;17.52;;;10.88;;
28682;SDS011;15862;43.062;25.626;2022-12-07T09:32:15;18.35;;;11.68;;
28682;SDS011;15862;43.062;25.626;2022-12-07T09:34:41;17.80;;;11.50;;
28682;SDS011;15862;43.062;25.626;2022-12-07T09:37:06;17.73;;;10.80;;
28682;SDS011;15862;43.062;25.626;2022-12-07T09:39:32;19.63;;;12.30;;
28682;SDS011;15862;43.062;25.626;2022-12-07T09:41:58;15.15;;;10.95;;
28682;SDS011;15862;43.062;25.626;2022-12-07T09:44:27;18.85;;;10.88;;
28682;SDS011;15862;43.062;25.626;2022-12-07T09:46:53;23.10;;;11.32;;
28682;SDS011;15862;43.062;25.626;2022-12-07T09:49:20;18.40;;;12.23;;
28682;SDS011;15862;43.062;25.626;2022-12-07T09:51:59;24.15;;;12.68;;
28682;SDS011;15862;43.062;25.626;2022-12-07T09:54:47;19.05;;;12.82;;
28682;SDS011;15862;43.062;25.626;2022-12-07T09:57:14;41.38;;;14.63;;
28682;SDS011;15862;43.062;25.626;2022-12-07T09:59:40;24.33;;;15.57;;
28682;SDS011;15862;43.062;25.626;2022-12-07T10:04:49;22.65;;;13.70;;
28682;SDS011;15862;43.062;25.626;2022-12-07T10:07:15;21.42;;;13.38;;
28682;SDS011;15862;43.062;25.626;2022-12-07T10:09:40;20.52;;;13.60;;
28682;SDS011;15862;43.062;25.626;2022-12-07T10:12:07;16.15;;;11.13;;
28682;SDS011;15862;43.062;25.626;2022-12-07T10:14:36;21.08;;;12.52;;
28682;SDS011;15862;43.062;25.626;2022-12-07T10:22:50;20.55;;;11.93;;
28682;SDS011;15862;43.062;25.626;2022-12-07T10:25:19;19.65;;;12.00;;
28682;SDS011;15862;43.062;25.626;2022-12-07T10:28:03;19.20;;;12.50;;
28682;SDS011;15862;43.062;25.626;2022-12-07T10:33:31;16.80;;;11.93;;
28682;SDS011;15862;43.062;25.626;2022-12-07T10:38:47;17.05;;;12.35;;
28682;SDS011;15862;43.062;25.626;2022-12-07T10:41:25;20.55;;;12.60;;
28682;SDS011;15862;43.062;25.626;2022-12-07T10:43:55;16.05;;;11.80;;
28682;SDS011;15862;43.062;25.626;2022-12-07T10:49:39;16.85;;;11.40;;
28682;SDS011;15862;43.062;25.626;2022-12-07T11:00:13;28.88;;;13.48;;
28682;SDS011;15862;43.062;25.626;2022-12-07T11:16:18;15.93;;;10.95;;
28682;SDS011;15862;43.062;25.626;2022-12-07T11:22:13;18.20;;;12.73;;
28682;SDS011;15862;43.062;25.626;2022-12-07T11:28:12;17.35;;;13.15;;
28682;SDS011;15862;43.062;25.626;2022-12-07T11:38:37;17.52;;;11.77;;
28682;SDS011;15862;43.062;25.626;2022-12-07T11:41:08;14.63;;;10.70;;
28682;SDS011;15862;43.062;25.626;2022-12-07T11:43:50;16.73;;;10.98;;
28682;SDS011;15862;43.062;25.626;2022-12-07T11:46:26;21.50;;;11.63;;
28682;SDS011;15862;43.062;25.626;2022-12-07T11:49:03;35.00;;;15.70;;
28682;SDS011;15862;43.062;25.626;2022-12-07T11:51:38;36.70;;;15.30;;
28682;SDS011;15862;43.062;25.626;2022-12-07T11:54:11;22.80;;;14.50;;
28682;SDS011;15862;43.062;25.626;2022-12-07T11:56:50;20.98;;;13.65;;
28682;SDS011;15862;43.062;25.626;2022-12-07T11:59:29;18.55;;;12.73;;
28682;SDS011;15862;43.062;25.626;2022-12-07T12:02:18;21.43;;;13.17;;
28682;SDS011;15862;43.062;25.626;2022-12-07T12:04:58;17.45;;;12.38;;
28682;SDS011;15862;43.062;25.626;2022-12-07T12:07:32;17.27;;;12.47;;
28682;SDS011;15862;43.062;25.626;2022-12-07T12:10:05;20.00;;;12.35;;
28682;SDS011;15862;43.062;25.626;2022-12-07T12:23:51;21.33;;;13.05;;
28682;SDS011;15862;43.062;25.626;2022-12-07T12:26:21;19.58;;;11.98;;
28682;SDS011;15862;43.062;25.626;2022-12-07T12:28:52;19.77;;;12.98;;
28682;SDS011;15862;43.062;25.626;2022-12-07T12:33:56;16.95;;;11.15;;
28682;SDS011;15862;43.062;25.626;2022-12-07T12:54:35;20.90;;;12.20;;
28682;SDS011;15862;43.062;25.626;2022-12-07T12:57:22;13.27;;;10.00;;
28682;SDS011;15862;43.062;25.626;2022-12-07T13:02:26;16.42;;;9.45;;
28682;SDS011;15862;43.062;25.626;2022-12-07T13:10:20;16.45;;;11.65;;
28682;SDS011;15862;43.062;25.626;2022-12-07T13:15:40;35.00;;;13.60;;
28682;SDS011;15862;43.062;25.626;2022-12-07T13:23:21;19.15;;;11.90;;
28682;SDS011;15862;43.062;25.626;2022-12-07T13:28:37;14.75;;;10.48;;
28682;SDS011;15862;43.062;25.626;2022-12-07T13:33:47;14.70;;;9.93;;
28682;SDS011;15862;43.062;25.626;2022-12-07T13:36:25;43.72;;;13.55;;
28682;SDS011;15862;43.062;25.626;2022-12-07T13:39:11;16.05;;;9.27;;
28682;SDS011;15862;43.062;25.626;2022-12-07T13:41:43;12.85;;;7.90;;
28682;SDS011;15862;43.062;25.626;2022-12-07T13:44:16;15.18;;;8.80;;
28682;SDS011;15862;43.062;25.626;2022-12-07T13:49:28;17.52;;;9.35;;
28682;SDS011;15862;43.062;25.626;2022-12-07T13:54:48;22.40;;;9.43;;
28682;SDS011;15862;43.062;25.626;2022-12-07T13:57:20;13.43;;;8.40;;
28682;SDS011;15862;43.062;25.626;2022-12-07T13:59:46;36.38;;;20.33;;
28682;SDS011;15862;43.062;25.626;2022-12-07T14:02:32;37.97;;;21.58;;
28682;SDS011;15862;43.062;25.626;2022-12-07T14:07:47;45.58;;;23.77;;
28682;SDS011;15862;43.062;25.626;2022-12-07T14:13:03;39.72;;;22.00;;
28682;SDS011;15862;43.062;25.626;2022-12-07T14:15:52;68.57;;;25.58;;
28682;SDS011;15862;43.062;25.626;2022-12-07T14:18:25;42.88;;;22.88;;
28682;SDS011;15862;43.062;25.626;2022-12-07T14:21:02;72.97;;;20.70;;
28682;SDS011;15862;43.062;25.626;2022-12-07T14:23:31;31.20;;;18.42;;
28682;SDS011;15862;43.062;25.626;2022-12-07T14:26:07;35.63;;;10.95;;
28682;SDS011;15862;43.062;25.626;2022-12-07T14:28:37;29.40;;;12.10;;
28682;SDS011;15862;43.062;25.626;2022-12-07T14:31:03;30.27;;;12.82;;
28682;SDS011;15862;43.062;25.626;2022-12-07T14:33:43;29.55;;;13.30;;
28682;SDS011;15862;43.062;25.626;2022-12-07T14:36:09;33.08;;;13.25;;
28682;SDS011;15862;43.062;25.626;2022-12-07T14:38:35;22.50;;;11.98;;
28682;SDS011;15862;43.062;25.626;2022-12-07T14:41:01;42.88;;;15.52;;
28682;SDS011;15862;43.062;25.626;2022-12-07T14:43:47;41.88;;;15.40;;
28682;SDS011;15862;43.062;25.626;2022-12-07T14:46:13;28.92;;;14.07;;
28682;SDS011;15862;43.062;25.626;2022-12-07T14:48:38;25.58;;;14.95;;
28682;SDS011;15862;43.062;25.626;2022-12-07T14:51:04;32.78;;;12.73;;
28682;SDS011;15862;43.062;25.626;2022-12-07T14:53:31;27.00;;;13.15;;
28682;SDS011;15862;43.062;25.626;2022-12-07T14:56:02;36.13;;;14.07;;
28682;SDS011;15862;43.062;25.626;2022-12-07T14:58:30;35.63;;;17.08;;
28682;SDS011;15862;43.062;25.626;2022-12-07T15:00:55;56.58;;;20.33;;
28682;SDS011;15862;43.062;25.626;2022-12-07T15:03:21;77.32;;;20.85;;
28682;SDS011;15862;43.062;25.626;2022-12-07T15:05:46;58.88;;;20.45;;
28682;SDS011;15862;43.062;25.626;2022-12-07T15:08:12;58.17;;;24.10;;
28682;SDS011;15862;43.062;25.626;2022-12-07T15:10:38;27.38;;;15.77;;
28682;SDS011;15862;43.062;25.626;2022-12-07T15:13:05;29.80;;;14.98;;
28682;SDS011;15862;43.062;25.626;2022-12-07T15:15:50;35.15;;;17.15;;
28682;SDS011;15862;43.062;25.626;2022-12-07T15:18:17;32.80;;;16.60;;
28682;SDS011;15862;43.062;25.626;2022-12-07T15:20:43;48.05;;;17.27;;
28682;SDS011;15862;43.062;25.626;2022-12-07T15:23:09;27.42;;;14.10;;
28682;SDS011;15862;43.062;25.626;2022-12-07T15:25:35;28.67;;;15.23;;
28682;SDS011;15862;43.062;25.626;2022-12-07T15:28:01;25.33;;;14.02;;
28682;SDS011;15862;43.062;25.626;2022-12-07T15:30:27;37.20;;;16.92;;
28682;SDS011;15862;43.062;25.626;2022-12-07T15:32:52;52.78;;;19.27;;
28682;SDS011;15862;43.062;25.626;2022-12-07T15:35:19;49.17;;;20.33;;
28682;SDS011;15862;43.062;25.626;2022-12-07T15:37:45;60.15;;;22.15;;
28682;SDS011;15862;43.062;25.626;2022-12-07T15:40:11;54.22;;;22.35;;
28682;SDS011;15862;43.062;25.626;2022-12-07T15:42:37;51.83;;;20.20;;
28682;SDS011;15862;43.062;25.626;2022-12-07T15:45:03;44.13;;;20.52;;
28682;SDS011;15862;43.062;25.626;2022-12-07T15:47:37;40.42;;;17.38;;
28682;SDS011;15862;43.062;25.626;2022-12-07T15:50:05;66.57;;;21.02;;
28682;SDS011;15862;43.062;25.626;2022-12-07T15:52:33;70.70;;;22.45;;
28682;SDS011;15862;43.062;25.626;2022-12-07T15:54:59;68.15;;;20.15;;
28682;SDS011;15862;43.062;25.626;2022-12-07T15:57:25;53.60;;;19.35;;
28682;SDS011;15862;43.062;25.626;2022-12-07T15:59:51;44.40;;;16.75;;
28682;SDS011;15862;43.062;25.626;2022-12-07T16:02:18;37.22;;;17.42;;
28682;SDS011;15862;43.062;25.626;2022-12-07T16:04:43;37.45;;;17.40;;
28682;SDS011;15862;43.062;25.626;2022-12-07T16:07:10;35.67;;;14.55;;
28682;SDS011;15862;43.062;25.626;2022-12-07T16:09:36;39.92;;;18.80;;
28682;SDS011;15862;43.062;25.626;2022-12-07T16:12:02;58.30;;;20.25;;
28682;SDS011;15862;43.062;25.626;2022-12-07T16:14:27;55.88;;;21.48;;
28682;SDS011;15862;43.062;25.626;2022-12-07T16:16:53;69.20;;;24.13;;
28682;SDS011;15862;43.062;25.626;2022-12-07T16:19:18;52.65;;;21.75;;
28682;SDS011;15862;43.062;25.626;2022-12-07T16:21:44;47.47;;;19.98;;
28682;SDS011;15862;43.062;25.626;2022-12-07T16:24:10;58.15;;;20.50;;
28682;SDS011;15862;43.062;25.626;2022-12-07T16:26:37;55.08;;;21.92;;
28682;SDS011;15862;43.062;25.626;2022-12-07T16:29:03;33.05;;;17.08;;
28682;SDS011;15862;43.062;25.626;2022-12-07T16:31:28;30.92;;;16.10;;
28682;SDS011;15862;43.062;25.626;2022-12-07T16:33:54;40.95;;;15.40;;
28682;SDS011;15862;43.062;25.626;2022-12-07T16:36:22;49.33;;;18.77;;
28682;SDS011;15862;43.062;25.626;2022-12-07T16:38:49;51.75;;;21.05;;
28682;SDS011;15862;43.062;25.626;2022-12-07T16:41:15;36.63;;;17.15;;
28682;SDS011;15862;43.062;25.626;2022-12-07T16:43:40;37.22;;;17.90;;
28682;SDS011;15862;43.062;25.626;2022-12-07T16:46:06;47.08;;;20.10;;
28682;SDS011;15862;43.062;25.626;2022-12-07T16:48:34;44.42;;;21.75;;
28682;SDS011;15862;43.062;25.626;2022-12-07T16:51:02;42.72;;;21.23;;